Time,TemperatureF,DewpointF,PressureIn,WindDirection,WindDirectionDegrees,WindSpeedMPH,WindSpeedGustMPH,Humidity,HourlyPrecipIn,Conditions,Clouds,dailyrainin,SoftwareType,DateUTC
2013-08-06 00:14:00,68.1,67.0,29.87,SSW,195,2.0,4.0,95,0.00,,,0.00,weatherlink.com 1.10,2013-08-06 05:14:00,
2013-08-06 00:29:00,67.9,67.0,29.87,SSW,204,1.0,6.0,95,0.00,,,0.00,weatherlink.com 1.10,2013-08-06 05:29:00,
2013-08-06 00:44:00,67.7,67.0,29.87,SSW,198,1.0,4.0,96,0.00,,,0.00,weatherlink.com 1.10,2013-08-06 05:44:00,
2013-08-06 00:59:00,67.4,66.0,29.87,SW,229,0.0,2.0,96,0.00,,,0.00,weatherlink.com 1.10,2013-08-06 05:59:00,
2013-08-06 01:14:00,67.4,67.0,29.87,WSW,245,0.0,4.0,97,0.00,,,0.00,weatherlink.com 1.10,2013-08-06 06:14:00,
2013-08-06 01:29:00,67.4,67.0,29.86,SE,136,0.0,1.0,97,0.00,,,0.00,weatherlink.com 1.10,2013-08-06 06:29:00,
2013-08-06 01:44:00,67.5,67.0,29.86,SW,236,1.0,4.0,97,0.00,,,0.00,weatherlink.com 1.10,2013-08-06 06:44:00,
2013-08-06 01:59:00,67.7,67.0,29.86,SW,221,1.0,5.0,97,0.00,,,0.00,weatherlink.com 1.10,2013-08-06 06:59:00,
2013-08-06 02:14:00,67.8,67.0,29.85,SW,232,0.0,3.0,97,0.00,,,0.00,weatherlink.com 1.10,2013-08-06 07:14:00,
2013-08-06 02:29:00,67.8,67.0,29.85,South,177,0.0,3.0,97,0.00,,,0.00,weatherlink.com 1.10,2013-08-06 07:29:00,
2013-08-06 02:45:00,67.8,67.0,29.84,SW,222,0.0,1.0,97,0.00,,,0.00,weatherlink.com 1.10,2013-08-06 07:45:00,
2013-08-06 03:00:00,67.7,67.0,29.83,SW,236,0.0,1.0,97,0.00,,,0.00,weatherlink.com 1.10,2013-08-06 08:00:00,
2013-08-06 03:15:00,67.7,67.0,29.83,SW,229,0.0,2.0,97,0.00,,,0.00,weatherlink.com 1.10,2013-08-06 08:15:00,
2013-08-06 03:30:00,67.7,67.0,29.82,SW,226,1.0,1.0,97,0.00,,,0.00,weatherlink.com 1.10,2013-08-06 08:30:00,
2013-08-06 03:45:00,67.7,67.0,29.83,SW,235,0.0,2.0,98,0.00,,,0.00,weatherlink.com 1.10,2013-08-06 08:45:00,
2013-08-06 04:00:00,67.6,67.0,29.83,SSW,205,1.0,4.0,98,0.00,,,0.00,weatherlink.com 1.10,2013-08-06 09:00:00,
2013-08-06 04:15:00,67.6,67.0,29.83,South,190,3.0,6.0,98,0.00,,,0.00,weatherlink.com 1.10,2013-08-06 09:15:00,
2013-08-06 04:30:00,67.6,67.0,29.83,SSW,211,3.0,5.0,98,0.00,,,0.00,weatherlink.com 1.10,2013-08-06 09:30:00,
2013-08-06 04:45:00,67.4,67.0,29.83,SE,146,1.0,6.0,98,0.00,,,0.00,weatherlink.com 1.10,2013-08-06 09:45:00,
2013-08-06 05:00:00,67.3,67.0,29.83,SW,222,1.0,5.0,98,0.00,,,0.00,weatherlink.com 1.10,2013-08-06 10:00:00,
2013-08-06 05:15:00,67.2,67.0,29.83,SSW,207,3.0,4.0,98,0.00,,,0.00,weatherlink.com 1.10,2013-08-06 10:15:00,
2013-08-06 05:30:00,67.2,67.0,29.84,SSW,210,3.0,4.0,98,0.00,,,0.00,weatherlink.com 1.10,2013-08-06 10:30:00,
2013-08-06 05:45:00,67.3,67.0,29.84,WSW,239,1.0,5.0,98,0.00,,,0.00,weatherlink.com 1.10,2013-08-06 10:45:00,
2013-08-06 06:00:00,67.4,67.0,29.85,SSE,157,3.0,7.0,98,0.00,,,0.00,weatherlink.com 1.10,2013-08-06 11:00:00,
2013-08-06 06:15:00,67.5,67.0,29.86,SW,228,0.0,10.0,98,0.00,,,0.00,weatherlink.com 1.10,2013-08-06 11:15:00,
2013-08-06 06:31:00,67.6,67.0,29.86,SW,221,2.0,7.0,98,0.00,,,0.00,weatherlink.com 1.10,2013-08-06 11:31:00,
2013-08-06 06:45:00,67.9,67.0,29.86,SW,227,0.0,5.0,98,0.00,,,0.00,weatherlink.com 1.10,2013-08-06 11:45:00,
2013-08-06 07:01:00,68.2,68.0,29.86,SW,226,2.0,3.0,99,0.00,,,0.00,weatherlink.com 1.10,2013-08-06 12:01:00,
2013-08-06 07:16:00,68.4,68.0,29.86,SW,217,3.0,4.0,99,0.00,,,0.00,weatherlink.com 1.10,2013-08-06 12:16:00,
2013-08-06 07:30:00,68.5,68.0,29.87,SSW,193,3.0,6.0,99,0.00,,,0.00,weatherlink.com 1.10,2013-08-06 12:30:00,
2013-08-06 07:46:00,68.7,68.0,29.87,SW,228,1.0,6.0,99,0.00,,,0.00,weatherlink.com 1.10,2013-08-06 12:46:00,
2013-08-06 08:00:00,68.9,69.0,29.87,SW,236,4.0,6.0,99,0.00,,,0.00,weatherlink.com 1.10,2013-08-06 13:00:00,
2013-08-06 08:16:00,69.0,69.0,29.88,WSW,240,3.0,9.0,99,0.00,,,0.00,weatherlink.com 1.10,2013-08-06 13:16:00,
2013-08-06 08:31:00,69.1,69.0,29.89,SSW,205,4.0,10.0,99,0.00,,,0.00,weatherlink.com 1.10,2013-08-06 13:31:00,
2013-08-06 08:47:00,69.5,69.0,29.89,WSW,248,2.0,4.0,99,0.00,,,0.00,weatherlink.com 1.10,2013-08-06 13:47:00,
2013-08-06 09:02:00,70.0,70.0,29.88,SW,233,1.0,3.0,99,0.00,,,0.00,weatherlink.com 1.10,2013-08-06 14:02:00,
2013-08-06 09:17:00,70.8,71.0,29.87,SW,217,0.0,3.0,99,0.00,,,0.00,weatherlink.com 1.10,2013-08-06 14:17:00,
2013-08-06 09:31:00,71.4,71.0,29.88,WSW,253,1.0,4.0,98,0.00,,,0.00,weatherlink.com 1.10,2013-08-06 14:31:00,
2013-08-06 09:47:00,71.9,71.0,29.87,SSW,211,1.0,4.0,98,0.00,,,0.00,weatherlink.com 1.10,2013-08-06 14:47:00,
2013-08-06 10:02:00,72.3,72.0,29.87,SW,214,2.0,6.0,98,0.00,,,0.00,weatherlink.com 1.10,2013-08-06 15:02:00,
2013-08-06 10:17:00,72.9,72.0,29.87,WSW,250,1.0,5.0,98,0.00,,,0.00,weatherlink.com 1.10,2013-08-06 15:17:00,
2013-08-06 10:33:00,73.8,73.0,29.87,SW,218,0.0,2.0,97,0.00,,,0.00,weatherlink.com 1.10,2013-08-06 15:33:00,
2013-08-06 10:47:00,75.7,73.0,29.86,SW,215,1.0,4.0,92,0.00,,,0.00,weatherlink.com 1.10,2013-08-06 15:47:00,
2013-08-06 11:02:00,79.0,74.0,29.85,ENE,73,1.0,4.0,85,0.00,,,0.00,weatherlink.com 1.10,2013-08-06 16:02:00,
2013-08-06 11:17:00,80.9,75.0,29.84,ESE,116,1.0,2.0,81,0.00,,,0.00,weatherlink.com 1.10,2013-08-06 16:17:00,
2013-08-06 11:33:00,82.3,76.0,29.84,NE,54,4.0,5.0,80,0.00,,,0.00,weatherlink.com 1.10,2013-08-06 16:33:00,
2013-08-06 11:47:00,83.9,77.0,29.84,ESE,114,0.0,3.0,79,0.00,,,0.00,weatherlink.com 1.10,2013-08-06 16:47:00,
2013-08-06 12:02:00,84.1,77.0,29.83,ESE,108,1.0,4.0,78,0.00,,,0.00,weatherlink.com 1.10,2013-08-06 17:02:00,
2013-08-06 12:18:00,84.6,76.0,29.82,East,81,4.0,6.0,76,0.00,,,0.00,weatherlink.com 1.10,2013-08-06 17:18:00,
2013-08-06 12:33:00,85.4,77.0,29.83,East,94,1.0,5.0,77,0.00,,,0.00,weatherlink.com 1.10,2013-08-06 17:33:00,
2013-08-06 12:47:00,86.5,77.0,29.83,East,79,1.0,4.0,73,0.00,,,0.00,weatherlink.com 1.10,2013-08-06 17:47:00,
2013-08-06 13:04:00,88.7,77.0,29.83,SSW,200,1.0,6.0,69,0.00,,,0.00,weatherlink.com 1.10,2013-08-06 18:04:00,
2013-08-06 13:18:00,87.5,76.0,29.83,SW,214,5.0,6.0,68,0.00,,,0.00,weatherlink.com 1.10,2013-08-06 18:18:00,
2013-08-06 13:33:00,88.0,76.0,29.83,SSE,166,2.0,4.0,68,0.00,,,0.00,weatherlink.com 1.10,2013-08-06 18:33:00,
2013-08-06 13:49:00,87.8,76.0,29.82,SSW,205,2.0,4.0,69,0.00,,,0.00,weatherlink.com 1.10,2013-08-06 18:49:00,
2013-08-06 14:04:00,88.2,77.0,29.82,West,271,0.0,6.0,69,0.00,,,0.00,weatherlink.com 1.10,2013-08-06 19:04:00,
2013-08-06 14:18:00,86.8,76.0,29.82,SSW,211,4.0,7.0,71,0.00,,,0.00,weatherlink.com 1.10,2013-08-06 19:18:00,
2013-08-06 14:34:00,85.3,77.0,29.81,SW,231,7.0,11.0,76,0.00,,,0.00,weatherlink.com 1.10,2013-08-06 19:34:00,
2013-08-06 14:49:00,86.1,77.0,29.80,SSW,207,5.0,10.0,74,0.00,,,0.00,weatherlink.com 1.10,2013-08-06 19:49:00,
2013-08-06 15:04:00,85.9,77.0,29.79,SSW,193,6.0,12.0,74,0.00,,,0.00,weatherlink.com 1.10,2013-08-06 20:04:00,
2013-08-06 15:18:00,86.0,76.0,29.79,SW,235,6.0,11.0,72,0.00,,,0.00,weatherlink.com 1.10,2013-08-06 20:18:00,
2013-08-06 15:34:00,84.5,75.0,29.80,SSE,162,4.0,8.0,74,0.00,,,0.00,weatherlink.com 1.10,2013-08-06 20:34:00,
2013-08-06 15:49:00,84.6,76.0,29.80,WSW,240,2.0,6.0,75,0.00,,,0.00,weatherlink.com 1.10,2013-08-06 20:49:00,
2013-08-06 16:04:00,86.5,77.0,29.78,WSW,245,1.0,8.0,73,0.00,,,0.00,weatherlink.com 1.10,2013-08-06 21:04:00,
2013-08-06 16:19:00,86.6,77.0,29.78,West,260,3.0,9.0,72,0.00,,,0.00,weatherlink.com 1.10,2013-08-06 21:19:00,
2013-08-06 16:34:00,85.9,77.0,29.79,WSW,255,1.0,7.0,74,0.00,,,0.00,weatherlink.com 1.10,2013-08-06 21:34:00,
2013-08-06 16:50:00,86.8,77.0,29.79,SE,132,1.0,3.0,72,0.00,,,0.00,weatherlink.com 1.10,2013-08-06 21:50:00,
2013-08-06 17:04:00,87.4,76.0,29.80,WSW,243,4.0,6.0,69,0.00,,,0.00,weatherlink.com 1.10,2013-08-06 22:04:00,
2013-08-06 17:19:00,86.4,76.0,29.80,SW,225,3.0,6.0,71,0.00,,,0.00,weatherlink.com 1.10,2013-08-06 22:19:00,
2013-08-06 17:35:00,86.3,77.0,29.79,SW,236,1.0,6.0,73,0.00,,,0.00,weatherlink.com 1.10,2013-08-06 22:35:00,
2013-08-06 17:49:00,85.6,77.0,29.79,SW,226,2.0,5.0,75,0.00,,,0.00,weatherlink.com 1.10,2013-08-06 22:49:00,
2013-08-06 18:05:00,84.3,76.0,29.79,South,187,5.0,10.0,76,0.00,,,0.00,weatherlink.com 1.10,2013-08-06 23:05:00,
2013-08-06 18:20:00,84.0,76.0,29.79,SSW,193,5.0,7.0,77,0.00,,,0.00,weatherlink.com 1.10,2013-08-06 23:20:00,
2013-08-06 18:35:00,84.1,76.0,29.79,SSW,197,2.0,7.0,76,0.00,,,0.00,weatherlink.com 1.10,2013-08-06 23:35:00,
2013-08-06 18:51:00,82.6,75.0,29.79,SSW,212,3.0,5.0,78,0.00,,,0.00,weatherlink.com 1.10,2013-08-06 23:51:00,
2013-08-06 19:05:00,82.1,75.0,29.79,South,174,3.0,4.0,80,0.00,,,0.00,weatherlink.com 1.10,2013-08-07 00:05:00,
2013-08-06 19:20:00,81.6,75.0,29.79,SSW,200,2.0,4.0,81,0.00,,,0.00,weatherlink.com 1.10,2013-08-07 00:20:00,
2013-08-06 19:36:00,81.2,75.0,29.79,SW,224,1.0,2.0,82,0.00,,,0.00,weatherlink.com 1.10,2013-08-07 00:36:00,
2013-08-06 19:50:00,80.7,75.0,29.79,SW,219,1.0,3.0,83,0.00,,,0.00,weatherlink.com 1.10,2013-08-07 00:50:00,
2013-08-06 20:05:00,80.1,75.0,29.79,SW,226,2.0,3.0,84,0.00,,,0.00,weatherlink.com 1.10,2013-08-07 01:05:00,
2013-08-06 20:20:00,79.2,75.0,29.80,SSW,202,1.0,1.0,86,0.00,,,0.00,weatherlink.com 1.10,2013-08-07 01:20:00,
2013-08-06 20:36:00,78.8,75.0,29.81,SSW,211,0.0,1.0,87,0.00,,,0.00,weatherlink.com 1.10,2013-08-07 01:36:00,
2013-08-06 20:50:00,78.7,75.0,29.81,WSW,241,1.0,2.0,87,0.00,,,0.00,weatherlink.com 1.10,2013-08-07 01:50:00,
2013-08-06 21:05:00,78.6,75.0,29.82,WSW,239,1.0,2.0,87,0.00,,,0.00,weatherlink.com 1.10,2013-08-07 02:05:00,
2013-08-06 21:21:00,77.9,74.0,29.82,SW,214,0.0,2.0,88,0.00,,,0.00,weatherlink.com 1.10,2013-08-07 02:21:00,
2013-08-06 21:36:00,77.5,74.0,29.82,SW,224,0.0,2.0,89,0.00,,,0.00,weatherlink.com 1.10,2013-08-07 02:36:00,
2013-08-06 21:51:00,76.9,74.0,29.83,SW,224,0.0,1.0,90,0.00,,,0.00,weatherlink.com 1.10,2013-08-07 02:51:00,
2013-08-06 22:06:00,76.1,73.0,29.83,SW,224,0.0,0.0,91,0.00,,,0.00,weatherlink.com 1.10,2013-08-07 03:06:00,
2013-08-06 22:20:00,75.5,73.0,29.83,SW,224,0.0,0.0,93,0.00,,,0.00,weatherlink.com 1.10,2013-08-07 03:20:00,
2013-08-06 22:36:00,75.0,73.0,29.83,SW,224,0.0,0.0,94,0.00,,,0.00,weatherlink.com 1.10,2013-08-07 03:36:00,
2013-08-06 22:51:00,74.8,73.0,29.83,SW,224,0.0,0.0,94,0.00,,,0.00,weatherlink.com 1.10,2013-08-07 03:51:00,
2013-08-06 23:07:00,74.4,73.0,29.82,SW,224,0.0,0.0,95,0.00,,,0.00,weatherlink.com 1.10,2013-08-07 04:07:00,
2013-08-06 23:21:00,74.1,73.0,29.83,SW,224,0.0,1.0,96,0.00,,,0.00,weatherlink.com 1.10,2013-08-07 04:21:00,
2013-08-06 23:36:00,74.1,73.0,29.83,SSW,205,1.0,4.0,96,0.00,,,0.00,weatherlink.com 1.10,2013-08-07 04:36:00,
2013-08-06 23:52:00,74.0,73.0,29.82,SE,125,0.0,3.0,96,0.00,,,0.00,weatherlink.com 1.10,2013-08-07 04:52:00,